createdAt,value
2022-11-27T00:01:25.793Z,16.17
2022-11-27T00:03:54.501Z,16.60
2022-11-27T00:06:24.163Z,16.45
2022-11-27T00:08:51.085Z,15.27
2022-11-27T00:11:23.660Z,13.57
2022-11-27T00:13:51.469Z,13.88
2022-11-27T00:16:19.889Z,12.95
2022-11-27T00:18:47.155Z,13.38
2022-11-27T00:21:16.781Z,12.82
2022-11-27T00:23:43.996Z,15.18
2022-11-27T00:26:11.350Z,13.38
2022-11-27T00:28:38.703Z,13.63
2022-11-27T00:31:21.877Z,13.02
2022-11-27T00:33:49.238Z,11.90
2022-11-27T00:36:16.832Z,10.90
2022-11-27T00:38:43.938Z,11.98
2022-11-27T00:41:17.669Z,10.93
2022-11-27T00:43:45.592Z,12.50
2022-11-27T00:46:14.519Z,11.63
2022-11-27T00:48:42.158Z,11.80
2022-11-27T00:51:19.796Z,12.80
2022-11-27T00:53:47.372Z,11.57
2022-11-27T00:56:20.692Z,11.27
2022-11-27T00:58:48.165Z,10.57
2022-11-27T01:01:23.652Z,11.20
2022-11-27T01:03:51.328Z,12.80
2022-11-27T01:06:19.478Z,11.35
2022-11-27T01:08:47.258Z,11.90
2022-11-27T01:11:28.599Z,11.43
2022-11-27T01:13:57.118Z,11.90
2022-11-27T01:16:26.786Z,11.25
2022-11-27T01:18:57.605Z,11.55
2022-11-27T01:21:26.279Z,12.50
2022-11-27T01:23:54.574Z,13.90
2022-11-27T01:26:22.319Z,11.82
2022-11-27T01:28:52.328Z,11.60
2022-11-27T01:31:22.467Z,11.25
2022-11-27T01:33:54.175Z,10.57
2022-11-27T01:36:21.364Z,10.65
2022-11-27T01:38:48.277Z,11.43
2022-11-27T01:41:21.657Z,12.32
2022-11-27T01:43:51.566Z,11.57
2022-11-27T01:46:42.854Z,10.50
2022-11-27T01:49:09.747Z,11.15
2022-11-27T01:51:52.511Z,11.98
2022-11-27T01:54:21.881Z,11.10
2022-11-27T01:56:52.040Z,11.02
2022-11-27T01:59:19.470Z,11.95
2022-11-27T02:01:46.377Z,12.60
2022-11-27T02:04:13.381Z,11.50
2022-11-27T02:06:40.307Z,11.45
2022-11-27T02:09:07.225Z,10.43
2022-11-27T02:11:43.324Z,11.38
2022-11-27T02:14:28.908Z,14.40
2022-11-27T02:17:15.242Z,14.98
2022-11-27T02:20:12.009Z,12.93
2022-11-27T02:22:47.631Z,12.52
2022-11-27T02:26:08.673Z,11.18
2022-11-27T02:28:59.050Z,12.45
2022-11-27T02:31:40.363Z,10.10
2022-11-27T02:34:28.320Z,9.38
2022-11-27T02:37:08.945Z,10.13
2022-11-27T02:40:03.700Z,9.48
2022-11-27T02:42:38.476Z,9.75
2022-11-27T02:45:16.662Z,7.32
2022-11-27T02:47:47.167Z,10.52
2022-11-27T02:52:49.196Z,9.43
2022-11-27T02:55:20.246Z,8.57
2022-11-27T02:57:50.837Z,8.52
2022-11-27T03:00:18.094Z,7.35
2022-11-27T03:02:51.064Z,8.02
2022-11-27T03:05:21.781Z,8.52
2022-11-27T03:07:52.637Z,9.93
2022-11-27T03:10:31.781Z,10.27
2022-11-27T03:12:59.885Z,9.00
2022-11-27T03:15:39.673Z,8.57
2022-11-27T03:18:23.108Z,8.70
2022-11-27T03:20:56.964Z,9.32
2022-11-27T03:23:23.819Z,8.75
2022-11-27T03:25:50.733Z,8.82
2022-11-27T03:28:17.680Z,9.18
2022-11-27T03:30:44.512Z,10.20
2022-11-27T03:33:11.781Z,10.05
2022-11-27T03:35:38.727Z,9.77
2022-11-27T03:38:05.852Z,4.68
2022-11-27T03:40:56.692Z,5.35
2022-11-27T03:43:27.656Z,3.00
2022-11-27T03:46:23.763Z,2.17
2022-11-27T03:49:02.817Z,1.80
2022-11-27T03:51:44.875Z,1.00
2022-11-27T03:54:20.560Z,1.27
2022-11-27T03:57:22.008Z,1.00
2022-11-27T03:59:52.944Z,1.30
2022-11-27T04:02:38.626Z,1.10
2022-11-27T04:05:05.921Z,1.10
2022-11-27T04:07:32.805Z,0.90
2022-11-27T04:09:59.620Z,1.23
2022-11-27T04:12:26.443Z,0.90
2022-11-27T04:14:53.254Z,1.15
2022-11-27T04:17:20.240Z,1.00
2022-11-27T04:19:47.257Z,1.35
2022-11-27T04:22:14.093Z,0.88
2022-11-27T04:24:41.160Z,0.60
2022-11-27T04:27:08.131Z,1.35
2022-11-27T04:29:36.559Z,1.23
2022-11-27T04:32:04.516Z,2.85
2022-11-27T04:34:32.199Z,1.52
2022-11-27T04:36:59.341Z,1.30
2022-11-27T04:39:26.607Z,1.30
2022-11-27T04:41:53.522Z,1.58
2022-11-27T04:44:22.681Z,1.70
2022-11-27T04:46:50.244Z,1.60
2022-11-27T04:49:17.300Z,1.23
2022-11-27T04:51:44.231Z,1.45
2022-11-27T04:54:11.201Z,1.15
2022-11-27T04:56:38.089Z,1.20
2022-11-27T04:59:05.476Z,1.33
2022-11-27T05:01:32.551Z,0.80
2022-11-27T05:03:59.478Z,1.00
2022-11-27T05:06:26.350Z,1.00
2022-11-27T05:08:59.955Z,1.23
2022-11-27T05:11:26.995Z,1.23
2022-11-27T05:14:14.108Z,0.90
2022-11-27T05:16:42.023Z,1.20
2022-11-27T05:19:10.684Z,1.27
2022-11-27T05:21:38.596Z,1.05
2022-11-27T05:24:05.870Z,0.80
2022-11-27T05:26:33.212Z,0.70
2022-11-27T05:29:00.406Z,1.38
2022-11-27T05:31:27.635Z,1.30
2022-11-27T05:33:54.635Z,1.33
2022-11-27T05:36:21.684Z,1.42
2022-11-27T05:38:48.609Z,1.35
2022-11-27T05:41:15.516Z,1.30
2022-11-27T05:43:42.385Z,1.27
2022-11-27T05:46:12.233Z,1.00
2022-11-27T05:48:39.211Z,1.13
2022-11-27T05:51:06.292Z,0.90
2022-11-27T05:53:33.833Z,1.20
2022-11-27T05:56:12.949Z,0.82
2022-11-27T05:58:40.698Z,0.80
2022-11-27T06:01:09.146Z,1.25
2022-11-27T06:03:39.007Z,0.90
2022-11-27T06:06:08.054Z,1.27
2022-11-27T06:08:36.863Z,1.80
2022-11-27T06:11:12.518Z,1.08
2022-11-27T06:13:39.388Z,1.13
2022-11-27T06:16:15.576Z,1.25
2022-11-27T06:18:43.116Z,1.30
2022-11-27T06:21:14.721Z,1.20
2022-11-27T06:23:42.850Z,1.40
2022-11-27T06:26:22.358Z,1.50
2022-11-27T06:28:49.922Z,1.27
2022-11-27T06:31:20.012Z,1.90
2022-11-27T06:33:49.154Z,1.67
2022-11-27T06:36:17.557Z,1.73
2022-11-27T06:38:45.097Z,1.52
2022-11-27T06:41:14.696Z,2.38
2022-11-27T06:43:42.108Z,1.30
2022-11-27T06:46:13.627Z,1.50
2022-11-27T06:48:40.882Z,1.95
2022-11-27T06:51:09.950Z,1.48
2022-11-27T06:53:37.814Z,1.38
2022-11-27T06:56:16.032Z,1.65
2022-11-27T06:58:43.692Z,1.58
2022-11-27T07:01:16.885Z,1.70
2022-11-27T07:03:44.645Z,1.60
2022-11-27T07:06:15.281Z,2.10
2022-11-27T07:08:42.386Z,1.80
2022-11-27T07:11:12.967Z,3.30
2022-11-27T07:13:40.174Z,1.80
2022-11-27T07:16:09.975Z,2.08
2022-11-27T07:18:45.168Z,2.20
2022-11-27T07:21:12.513Z,1.83
2022-11-27T07:23:39.589Z,2.05
2022-11-27T07:26:08.711Z,1.70
2022-11-27T07:28:35.688Z,2.47
2022-11-27T07:31:03.295Z,2.60
2022-11-27T07:33:30.350Z,2.28
2022-11-27T07:36:02.698Z,3.00
2022-11-27T07:38:29.666Z,2.80
2022-11-27T07:41:00.835Z,2.47
2022-11-27T07:43:28.657Z,2.95
2022-11-27T07:45:56.067Z,2.35
2022-11-27T07:48:23.270Z,2.60
2022-11-27T07:50:50.126Z,2.50
2022-11-27T07:53:17.226Z,3.85
2022-11-27T07:55:44.040Z,3.60
2022-11-27T07:58:10.928Z,3.15
2022-11-27T08:00:38.299Z,3.17
2022-11-27T08:03:05.269Z,4.55
2022-11-27T08:05:35.582Z,3.33
2022-11-27T08:08:04.411Z,5.03
2022-11-27T08:10:34.702Z,3.47
2022-11-27T08:13:01.674Z,4.38
2022-11-27T08:15:28.566Z,3.78
2022-11-27T08:17:55.475Z,3.90
2022-11-27T08:20:23.024Z,4.88
2022-11-27T08:22:50.214Z,4.72
2022-11-27T08:25:17.735Z,3.78
2022-11-27T08:27:44.767Z,4.68
2022-11-27T08:30:11.904Z,4.90
2022-11-27T08:32:40.566Z,4.45
2022-11-27T08:35:07.862Z,5.18
2022-11-27T08:37:35.246Z,4.45
2022-11-27T08:40:02.505Z,4.35
2022-11-27T08:42:29.486Z,4.85
2022-11-27T08:44:56.465Z,4.50
2022-11-27T08:47:23.339Z,4.88
2022-11-27T08:49:50.381Z,5.70
2022-11-27T08:52:17.381Z,5.80
2022-11-27T08:54:44.275Z,6.15
2022-11-27T08:57:11.083Z,8.13
2022-11-27T08:59:37.991Z,6.80
2022-11-27T09:02:04.898Z,5.50
2022-11-27T09:04:31.913Z,6.90
2022-11-27T09:06:58.993Z,5.70
2022-11-27T09:09:25.968Z,6.03
2022-11-27T09:11:54.721Z,6.53
2022-11-27T09:14:21.654Z,6.63
2022-11-27T09:16:48.680Z,6.63
2022-11-27T09:19:15.768Z,6.80
2022-11-27T09:21:42.619Z,6.28
2022-11-27T09:24:09.882Z,8.30
2022-11-27T09:26:36.806Z,6.63
2022-11-27T09:29:04.103Z,7.45
2022-11-27T09:31:31.065Z,8.18
2022-11-27T09:33:58.633Z,8.13
2022-11-27T09:36:26.726Z,7.75
2022-11-27T09:38:54.358Z,7.25
2022-11-27T09:41:38.719Z,7.07
2022-11-27T09:44:14.921Z,5.10
2022-11-27T09:46:43.576Z,2.42
2022-11-27T09:49:15.673Z,1.65
2022-11-27T09:51:55.063Z,0.88
2022-11-27T09:54:54.898Z,1.15
2022-11-27T09:57:31.511Z,1.30
2022-11-27T10:00:10.602Z,0.80
2022-11-27T10:02:37.551Z,1.17
2022-11-27T10:05:14.424Z,0.80
2022-11-27T10:08:07.233Z,1.00
2022-11-27T10:10:57.007Z,1.00
2022-11-27T10:13:32.512Z,0.68
2022-11-27T10:16:03.169Z,1.02
2022-11-27T10:18:40.663Z,0.73
2022-11-27T10:21:14.973Z,0.77
2022-11-27T10:24:09.923Z,1.60
2022-11-27T10:26:52.016Z,1.10
2022-11-27T10:29:45.718Z,1.00
2022-11-27T10:32:53.025Z,0.82
2022-11-27T10:35:18.292Z,0.73
2022-11-27T10:38:07.368Z,0.90
2022-11-27T10:40:43.531Z,1.10
2022-11-27T10:43:18.528Z,0.77
2022-11-27T10:46:17.621Z,0.82
2022-11-27T10:48:44.500Z,1.20
2022-11-27T10:51:32.196Z,1.10
2022-11-27T10:54:00.825Z,1.20
2022-11-27T10:56:47.859Z,0.90
2022-11-27T10:59:33.183Z,1.00
2022-11-27T11:02:03.400Z,0.85
2022-11-27T11:04:37.940Z,1.30
2022-11-27T11:07:26.697Z,1.15
2022-11-27T11:09:54.780Z,0.77
2022-11-27T11:12:23.530Z,0.95
2022-11-27T11:14:52.868Z,1.38
2022-11-27T11:17:34.877Z,1.23
2022-11-27T11:20:22.337Z,1.13
2022-11-27T11:22:49.715Z,1.20
2022-11-27T11:25:21.726Z,0.90
2022-11-27T11:27:51.277Z,0.73
2022-11-27T11:30:28.625Z,0.73
2022-11-27T11:33:03.317Z,0.95
2022-11-27T11:35:35.622Z,0.85
2022-11-27T11:38:16.230Z,1.25
2022-11-27T11:40:46.734Z,1.48
2022-11-27T11:48:25.564Z,0.82
2022-11-27T11:50:58.664Z,1.02
2022-11-27T11:53:42.645Z,1.17
2022-11-27T11:56:37.706Z,1.15
2022-11-27T11:59:22.570Z,1.13
2022-11-27T12:02:03.885Z,0.70
2022-11-27T12:04:48.621Z,1.27
2022-11-27T12:07:43.078Z,1.00
2022-11-27T12:10:22.555Z,0.90
2022-11-27T12:13:19.081Z,0.98
2022-11-27T12:16:04.757Z,0.88
2022-11-27T12:18:57.945Z,0.80
2022-11-27T12:21:38.702Z,0.75
2022-11-27T12:24:29.375Z,0.95
2022-11-27T12:27:04.876Z,1.02
2022-11-27T12:29:52.906Z,1.10
2022-11-27T12:32:52.439Z,1.10
2022-11-27T12:35:19.691Z,0.82
2022-11-27T12:38:17.333Z,0.75
2022-11-27T12:41:02.912Z,0.60
2022-11-27T12:43:36.072Z,0.90
2022-11-27T12:46:09.063Z,0.85
2022-11-27T12:49:00.670Z,0.82
2022-11-27T12:51:32.166Z,1.23
2022-11-27T12:54:04.560Z,1.00
2022-11-27T12:56:44.728Z,1.23
2022-11-27T12:59:11.584Z,0.80
2022-11-27T13:01:54.493Z,0.45
2022-11-27T13:04:27.854Z,1.05
2022-11-27T13:07:00.851Z,0.90
2022-11-27T13:09:45.688Z,1.20
2022-11-27T13:12:22.449Z,1.38
2022-11-27T13:15:00.464Z,0.82
2022-11-27T13:17:35.425Z,0.70
2022-11-27T13:20:03.662Z,0.77
2022-11-27T13:23:33.906Z,0.90
2022-11-27T13:26:11.415Z,0.95
2022-11-27T13:29:23.681Z,0.68
2022-11-27T13:31:55.803Z,1.10
2022-11-27T13:34:26.890Z,0.80
2022-11-27T13:37:08.175Z,1.00
2022-11-27T13:39:39.045Z,0.77
2022-11-27T13:42:12.177Z,0.65
2022-11-27T13:44:43.910Z,1.00
2022-11-27T13:47:23.028Z,0.70
2022-11-27T13:50:10.122Z,1.10
2022-11-27T13:52:37.629Z,1.42
2022-11-27T13:55:09.735Z,2.30
2022-11-27T13:57:38.439Z,1.30
2022-11-27T14:00:11.174Z,1.60
2022-11-27T14:02:46.681Z,1.58
2022-11-27T14:05:15.971Z,1.65
2022-11-27T14:07:49.306Z,1.70
2022-11-27T14:10:21.067Z,1.25
2022-11-27T14:13:07.072Z,1.92
2022-11-27T14:15:36.531Z,1.50
2022-11-27T14:18:19.280Z,1.30
2022-11-27T14:20:56.099Z,2.00
2022-11-27T14:23:31.765Z,2.65
2022-11-27T14:26:03.935Z,2.33
2022-11-27T14:28:32.118Z,2.65
2022-11-27T14:31:00.995Z,2.00
2022-11-27T14:33:47.461Z,3.28
2022-11-27T14:36:28.161Z,2.92
2022-11-27T14:38:54.999Z,3.13
2022-11-27T14:41:25.044Z,3.13
2022-11-27T14:44:06.531Z,3.90
2022-11-27T14:46:36.652Z,5.95
2022-11-27T14:49:03.975Z,5.45
2022-11-27T14:51:33.334Z,6.38
2022-11-27T14:54:10.866Z,6.88
2022-11-27T14:56:41.387Z,7.15
2022-11-27T15:01:46.551Z,6.70
2022-11-27T15:04:28.998Z,7.60
2022-11-27T15:06:57.512Z,6.30
2022-11-27T15:09:32.090Z,6.10
2022-11-27T15:12:01.095Z,6.28
2022-11-27T15:14:29.302Z,5.68
2022-11-27T15:16:58.127Z,7.50
2022-11-27T15:19:35.568Z,6.07
2022-11-27T15:22:03.556Z,6.10
2022-11-27T15:24:37.571Z,6.22
2022-11-27T15:27:22.789Z,7.00
2022-11-27T15:29:49.657Z,9.00
2022-11-27T15:32:24.009Z,9.55
2022-11-27T15:34:54.654Z,11.18
2022-11-27T15:37:27.435Z,13.13
2022-11-27T15:39:56.423Z,14.05
2022-11-27T15:42:24.076Z,12.70
2022-11-27T15:44:54.831Z,14.43
2022-11-27T15:50:02.147Z,15.02
2022-11-27T15:52:30.511Z,15.32
2022-11-27T15:54:57.354Z,15.40
2022-11-27T15:57:25.149Z,15.82
2022-11-27T15:59:52.241Z,15.30
2022-11-27T16:02:19.181Z,12.32
2022-11-27T16:04:46.016Z,11.50
2022-11-27T16:07:12.946Z,11.48
2022-11-27T16:09:40.115Z,13.23
2022-11-27T16:12:07.187Z,13.20
2022-11-27T16:14:34.220Z,13.18
2022-11-27T16:17:01.477Z,11.27
2022-11-27T16:19:28.703Z,19.73
2022-11-27T16:21:56.807Z,27.67
2022-11-27T16:24:23.964Z,25.20
2022-11-27T16:26:50.838Z,24.13
2022-11-27T16:29:17.969Z,17.58
2022-11-27T16:31:44.827Z,13.00
2022-11-27T16:34:12.275Z,14.07
2022-11-27T16:36:43.762Z,14.43
2022-11-27T16:39:11.799Z,20.17
2022-11-27T16:41:39.626Z,16.08
2022-11-27T16:44:12.429Z,12.60
2022-11-27T16:46:39.521Z,10.80
2022-11-27T16:49:06.646Z,10.98
2022-11-27T16:51:34.996Z,11.02
2022-11-27T16:54:04.693Z,10.32
2022-11-27T16:56:33.412Z,10.52
2022-11-27T16:59:06.620Z,10.18
2022-11-27T17:01:36.205Z,8.93
2022-11-27T17:04:09.100Z,8.90
2022-11-27T17:06:37.827Z,9.15
2022-11-27T17:09:07.578Z,7.53
2022-11-27T17:11:36.431Z,8.63
2022-11-27T17:14:07.284Z,8.98
2022-11-27T17:16:35.922Z,15.80
2022-11-27T17:19:03.890Z,15.13
2022-11-27T17:21:33.820Z,15.73
2022-11-27T17:24:10.153Z,17.30
2022-11-27T17:26:43.498Z,17.65
2022-11-27T17:29:11.940Z,17.13
2022-11-27T17:31:39.833Z,16.15
2022-11-27T17:34:07.354Z,15.73
2022-11-27T17:36:37.478Z,16.83
2022-11-27T17:39:06.467Z,17.42
2022-11-27T17:41:33.866Z,17.75
2022-11-27T17:44:02.685Z,18.00
2022-11-27T17:46:30.443Z,16.30
2022-11-27T17:49:00.366Z,15.00
2022-11-27T17:51:30.714Z,12.98
2022-11-27T17:54:01.097Z,12.35
2022-11-27T17:56:32.253Z,13.18
2022-11-27T17:59:01.806Z,12.30
2022-11-27T18:01:30.440Z,11.73
2022-11-27T18:04:00.891Z,11.45
2022-11-27T18:06:30.814Z,10.88
2022-11-27T18:08:58.860Z,10.77
2022-11-27T18:11:29.221Z,10.45
2022-11-27T18:13:59.245Z,8.95
2022-11-27T18:16:29.524Z,10.35
2022-11-27T18:18:58.012Z,9.43
2022-11-27T18:21:29.067Z,9.45
2022-11-27T18:29:30.453Z,7.15
2022-11-27T18:31:57.324Z,6.28
2022-11-27T18:34:24.246Z,7.43
2022-11-27T18:36:51.197Z,8.07
2022-11-27T18:39:21.848Z,8.10
2022-11-27T18:41:49.020Z,15.40
2022-11-27T18:44:16.054Z,15.43
2022-11-27T18:46:43.095Z,19.15
2022-11-27T18:49:10.052Z,14.40
2022-11-27T18:51:37.134Z,11.13
2022-11-27T18:54:04.270Z,9.60
2022-11-27T18:56:32.456Z,9.15
2022-11-27T18:59:06.388Z,8.10
2022-11-27T19:01:41.290Z,8.30
2022-11-27T19:04:10.663Z,8.38
2022-11-27T19:06:38.999Z,7.78
2022-11-27T19:40:06.546Z,8.05
2022-11-27T19:42:33.494Z,6.85
2022-11-27T19:45:00.315Z,5.47
2022-11-27T19:47:27.322Z,5.97
2022-11-27T19:49:54.114Z,6.50
2022-11-27T19:52:20.993Z,7.63
2022-11-27T19:54:48.018Z,8.48
2022-11-27T19:57:15.075Z,9.35
2022-11-27T19:59:42.892Z,13.77
2022-11-27T20:02:14.509Z,15.85
2022-11-27T20:04:42.094Z,15.65
2022-11-27T20:07:09.120Z,13.88
2022-11-27T20:09:36.308Z,13.52
2022-11-27T20:12:03.674Z,12.02
2022-11-27T20:14:30.621Z,7.68
2022-11-27T20:16:57.567Z,6.75
2022-11-27T20:19:24.579Z,8.35
2022-11-27T20:21:51.586Z,7.68
2022-11-27T20:24:18.917Z,8.07
2022-11-27T20:26:45.908Z,7.85
2022-11-27T20:29:13.505Z,9.13
2022-11-27T20:31:43.841Z,8.43
2022-11-27T20:34:16.538Z,8.05
2022-11-27T20:36:43.478Z,8.10
2022-11-27T20:39:13.006Z,7.45
2022-11-27T20:41:42.152Z,7.78
2022-11-27T20:44:13.400Z,7.53
2022-11-27T20:46:40.299Z,7.32
2022-11-27T20:49:10.541Z,7.57
2022-11-27T20:51:39.101Z,7.38
2022-11-27T20:54:08.455Z,8.02
2022-11-27T20:56:35.771Z,7.22
2022-11-27T20:59:04.993Z,8.60
2022-11-27T21:01:34.633Z,8.30
2022-11-27T21:04:09.018Z,9.73
2022-11-27T21:06:43.230Z,9.73
2022-11-27T21:09:11.913Z,9.43
2022-11-27T21:11:39.306Z,9.70
2022-11-27T21:14:09.561Z,10.15
2022-11-27T21:16:39.872Z,9.30
2022-11-27T21:19:13.167Z,10.25
2022-11-27T21:21:40.165Z,9.93
2022-11-27T21:24:07.751Z,10.02
2022-11-27T21:26:35.330Z,9.57
2022-11-27T21:29:03.830Z,9.07
2022-11-27T21:31:37.266Z,8.77
2022-11-27T21:34:06.493Z,8.70
2022-11-27T21:36:36.035Z,9.95
2022-11-27T21:39:06.355Z,10.05
2022-11-27T21:41:33.647Z,8.45
2022-11-27T21:44:02.450Z,8.85
2022-11-27T21:46:30.572Z,9.70
2022-11-27T21:49:01.403Z,9.48
2022-11-27T21:51:29.605Z,9.20
2022-11-27T21:53:58.794Z,8.77
2022-11-27T21:56:27.934Z,11.00
2022-11-27T21:58:54.986Z,9.02
2022-11-27T22:01:24.467Z,8.13
2022-11-27T22:03:54.200Z,8.23
2022-11-27T22:06:23.018Z,8.35
2022-11-27T22:08:51.921Z,7.90
2022-11-27T22:11:21.566Z,7.82
2022-11-27T22:13:49.758Z,7.63
2022-11-27T22:16:19.824Z,8.23
2022-11-27T22:18:48.607Z,7.32
2022-11-27T22:21:16.649Z,7.28
2022-11-27T22:23:44.476Z,7.95
2022-11-27T22:26:17.315Z,7.55
2022-11-27T22:28:45.223Z,7.30
2022-11-27T22:31:20.361Z,9.38
2022-11-27T22:33:48.988Z,8.13
2022-11-27T22:36:30.323Z,8.25
2022-11-27T22:38:59.078Z,7.60
2022-11-27T22:41:28.854Z,8.07
2022-11-27T22:43:55.956Z,9.18
2022-11-27T22:46:32.689Z,7.90
2022-11-27T22:49:02.594Z,7.03
2022-11-27T22:51:31.636Z,8.48
2022-11-27T22:53:59.083Z,8.27
2022-11-27T22:56:26.223Z,9.07
2022-11-27T22:59:11.376Z,8.25
2022-11-27T23:01:40.987Z,8.82
2022-11-27T23:04:08.385Z,7.80
2022-11-27T23:06:36.933Z,7.80
2022-11-27T23:09:04.082Z,8.73
2022-11-27T23:11:31.398Z,7.60
2022-11-27T23:13:58.887Z,9.05
2022-11-27T23:16:26.629Z,8.13
2022-11-27T23:18:53.661Z,6.45
2022-11-27T23:21:23.172Z,7.18
2022-11-27T23:23:50.531Z,6.83
2022-11-27T23:26:23.094Z,7.18
2022-11-27T23:28:52.300Z,6.78
2022-11-27T23:31:38.154Z,7.45
2022-11-27T23:34:08.493Z,6.70
2022-11-27T23:36:35.956Z,6.20
2022-11-27T23:39:05.066Z,6.18
2022-11-27T23:41:32.726Z,5.18
2022-11-27T23:43:59.634Z,6.50
2022-11-27T23:46:28.733Z,7.45
2022-11-27T23:48:57.797Z,5.75
2022-11-27T23:51:27.147Z,5.70
2022-11-27T23:53:54.418Z,5.30
2022-11-27T23:56:26.840Z,5.65
2022-11-27T23:58:55.132Z,5.13
